createdAt,value
2023-04-28T00:00:05.869Z,100474.66
2023-04-28T00:02:34.436Z,100469.38
2023-04-28T00:05:02.824Z,100470.06
2023-04-28T00:07:31.000Z,100463.00
2023-04-28T00:09:59.074Z,100459.38
2023-04-28T00:12:27.115Z,100463.53
2023-04-28T00:14:56.587Z,100454.66
2023-04-28T00:17:24.688Z,100453.50
2023-04-28T00:19:53.065Z,100454.31
2023-04-28T00:22:21.133Z,100450.56
2023-04-28T00:24:49.162Z,100448.75
2023-04-28T00:27:17.228Z,100443.31
2023-04-28T00:29:45.289Z,100432.78
2023-04-28T00:32:14.725Z,100430.97
2023-04-28T00:34:43.130Z,100431.78
2023-04-28T00:37:11.420Z,100430.97
2023-04-28T00:39:39.445Z,100430.81
2023-04-28T00:42:07.505Z,100422.91
2023-04-28T00:44:35.663Z,100413.19
2023-04-28T00:47:03.997Z,100411.38
2023-04-28T00:49:34.210Z,100404.31
2023-04-28T00:52:06.156Z,100406.94
2023-04-28T00:54:35.124Z,100400.84
2023-04-28T00:57:04.852Z,100394.06
2023-04-28T00:59:33.127Z,100398.69
2023-04-28T01:02:02.326Z,100402.97
2023-04-28T01:04:31.751Z,100401.31
2023-04-28T01:07:02.381Z,100396.88
2023-04-28T01:09:30.638Z,100397.69
2023-04-28T01:11:59.004Z,100397.53
2023-04-28T01:14:43.277Z,100394.72
2023-04-28T01:17:11.979Z,100386.53
2023-04-28T01:19:40.117Z,100381.25
2023-04-28T01:22:14.077Z,100377.78
2023-04-28T01:24:43.844Z,100377.78
2023-04-28T01:27:14.070Z,100380.28
2023-04-28T01:29:43.259Z,100369.88
2023-04-28T01:32:11.349Z,100370.72
2023-04-28T01:34:40.934Z,100361.97
2023-04-28T01:37:09.007Z,100362.81
2023-04-28T01:39:38.542Z,100349.63
2023-04-28T01:42:08.182Z,100357.53
2023-04-28T01:44:36.236Z,100355.53
2023-04-28T01:47:04.318Z,100343.38
2023-04-28T01:49:32.360Z,100345.00
2023-04-28T01:52:00.817Z,100348.31
2023-04-28T01:55:23.845Z,100340.41
2023-04-28T01:58:11.908Z,100326.25
2023-04-28T02:00:40.247Z,100320.66
2023-04-28T02:03:08.343Z,100324.13
2023-04-28T02:05:36.977Z,100322.97
2023-04-28T02:08:05.601Z,100318.38
2023-04-28T02:10:33.720Z,100311.97
2023-04-28T02:13:01.800Z,100306.53
2023-04-28T02:15:32.090Z,100309.84
2023-04-28T02:18:00.246Z,100310.66
2023-04-28T02:20:28.332Z,100305.09
2023-04-28T02:22:56.401Z,100299.63
2023-04-28T02:25:24.436Z,100301.31
2023-04-28T02:27:52.594Z,100299.50
2023-04-28T02:30:21.997Z,100305.31
2023-04-28T02:32:51.864Z,100310.25
2023-04-28T02:35:20.058Z,100301.50
2023-04-28T02:37:48.085Z,100298.72
2023-04-28T02:40:16.348Z,100288.84
2023-04-28T02:42:44.460Z,100291.47
2023-04-28T02:45:12.803Z,100289.53
2023-04-28T02:47:41.325Z,100286.88
2023-04-28T02:50:11.740Z,100276.97
2023-04-28T02:52:39.799Z,100276.97
2023-04-28T02:55:08.671Z,100277.81
2023-04-28T02:57:36.889Z,100284.75
2023-04-28T03:00:05.668Z,100275.00
2023-04-28T03:02:41.907Z,100263.63
2023-04-28T03:05:11.638Z,100266.94
2023-04-28T03:07:39.917Z,100265.28
2023-04-28T03:10:09.157Z,100267.78
2023-04-28T03:12:37.407Z,100259.72
2023-04-28T03:15:08.842Z,100252.63
2023-04-28T03:17:41.765Z,100256.88
2023-04-28T03:20:12.989Z,100249.78
2023-04-28T03:22:41.323Z,100254.09
2023-04-28T03:25:09.957Z,100248.81
2023-04-28T03:27:46.557Z,100248.00
2023-04-28T03:30:14.959Z,100246.69
2023-04-28T03:32:43.159Z,100241.41
2023-04-28T03:35:12.683Z,100247.34
2023-04-28T03:37:41.520Z,100244.69
2023-04-28T03:40:10.904Z,100238.44
2023-04-28T03:42:59.319Z,100243.56
2023-04-28T03:45:31.166Z,100235.50
2023-04-28T03:47:59.522Z,100237.31
2023-04-28T03:50:29.130Z,100243.25
2023-04-28T03:52:57.154Z,100229.22
2023-04-28T03:55:26.191Z,100232.34
2023-04-28T03:57:54.597Z,100235.81
2023-04-28T04:00:22.690Z,100235.66
2023-04-28T04:02:54.714Z,100231.22
2023-04-28T04:05:22.869Z,100227.75
2023-04-28T04:07:52.341Z,100225.94
2023-04-28T04:10:20.719Z,100227.44
2023-04-28T04:12:49.889Z,100221.34
2023-04-28T04:15:18.016Z,100229.72
2023-04-28T04:17:47.919Z,100223.31
2023-04-28T04:20:16.244Z,100228.44
2023-04-28T04:22:46.957Z,100221.16
2023-04-28T04:25:23.526Z,100211.28
2023-04-28T04:27:53.097Z,100219.69
2023-04-28T04:30:21.959Z,100214.06
2023-04-28T04:32:50.217Z,100216.41
2023-04-28T04:35:18.281Z,100214.44
2023-04-28T04:37:46.460Z,100214.25
2023-04-28T04:40:14.658Z,100215.06
2023-04-28T04:42:50.633Z,100210.97
2023-04-28T04:45:20.530Z,100208.13
2023-04-28T04:47:50.154Z,100211.44
2023-04-28T04:50:19.117Z,100205.66
2023-04-28T04:52:47.139Z,100206.84
2023-04-28T04:55:15.620Z,100207.16
2023-04-28T04:57:44.649Z,100209.28
2023-04-28T05:00:25.006Z,100208.66
2023-04-28T05:02:54.642Z,100198.41
2023-04-28T05:05:23.979Z,100192.28
2023-04-28T05:08:05.936Z,100182.50
2023-04-28T05:10:34.255Z,100180.69
2023-04-28T05:13:03.713Z,100174.19
2023-04-28T05:15:33.242Z,100165.41
2023-04-28T05:18:16.806Z,100174.31
2023-04-28T05:20:44.973Z,100167.16
2023-04-28T05:23:14.157Z,100169.63
2023-04-28T05:25:42.378Z,100168.56
2023-04-28T05:28:10.996Z,100167.72
2023-04-28T05:30:40.501Z,100165.22
2023-04-28T05:33:08.660Z,100168.00
2023-04-28T05:35:37.460Z,100168.81
2023-04-28T05:38:06.930Z,100170.13
2023-04-28T05:40:35.839Z,100172.72
2023-04-28T05:43:03.937Z,100175.66
2023-04-28T05:45:32.913Z,100171.00
2023-04-28T05:48:02.668Z,100165.00
2023-04-28T05:50:30.944Z,100165.50
2023-04-28T05:52:59.031Z,100163.97
2023-04-28T05:55:27.535Z,100161.25
2023-04-28T05:57:56.030Z,100160.00
2023-04-28T06:00:24.289Z,100158.28
2023-04-28T06:02:55.293Z,100154.88
2023-04-28T06:05:25.195Z,100159.72
2023-04-28T06:07:56.146Z,100157.09
2023-04-28T06:10:24.705Z,100148.69
2023-04-28T06:12:52.742Z,100152.53
2023-04-28T06:15:21.066Z,100152.44
2023-04-28T06:17:49.575Z,100154.53
2023-04-28T06:20:18.294Z,100141.03
2023-04-28T06:22:47.695Z,100144.84
2023-04-28T06:25:15.929Z,100148.34
2023-04-28T06:27:47.503Z,100152.28
2023-04-28T06:30:19.325Z,100148.06
2023-04-28T06:32:47.534Z,100149.97
2023-04-28T06:35:15.961Z,100145.84
2023-04-28T06:37:44.559Z,100139.44
2023-04-28T06:40:14.240Z,100141.56
2023-04-28T06:42:48.087Z,100145.94
2023-04-28T06:45:21.744Z,100135.41
2023-04-28T06:47:49.952Z,100130.34
2023-04-28T06:50:17.967Z,100129.09
2023-04-28T06:52:46.370Z,100126.16
2023-04-28T06:55:17.700Z,100133.13
2023-04-28T06:57:46.571Z,100131.25
2023-04-28T07:00:15.628Z,100135.47
2023-04-28T07:02:43.781Z,100126.22
2023-04-28T07:05:14.747Z,100130.53
2023-04-28T07:07:44.048Z,100117.25
2023-04-28T07:10:13.525Z,100121.81
2023-04-28T07:12:43.050Z,100115.25
2023-04-28T07:15:12.076Z,100111.75
2023-04-28T07:17:40.318Z,100106.91
2023-04-28T07:20:09.570Z,100112.28
2023-04-28T07:22:38.584Z,100119.09
2023-04-28T07:25:07.070Z,100115.28
2023-04-28T07:27:35.119Z,100115.78
2023-04-28T07:30:15.180Z,100105.84
2023-04-28T07:32:53.237Z,100110.22
2023-04-28T07:35:21.319Z,100106.03
2023-04-28T07:37:49.450Z,100100.94
2023-04-28T07:40:18.107Z,100099.09
2023-04-28T07:42:46.629Z,100102.44
2023-04-28T07:45:16.932Z,100109.22
2023-04-28T07:47:45.057Z,100097.56
2023-04-28T07:50:13.435Z,100097.31
2023-04-28T07:52:41.474Z,100099.41
2023-04-28T07:55:10.326Z,100102.91
2023-04-28T07:57:38.582Z,100093.97
2023-04-28T08:00:08.621Z,100091.75
2023-04-28T08:02:44.294Z,100077.91
2023-04-28T08:05:12.723Z,100077.56
2023-04-28T08:07:40.988Z,100083.13
2023-04-28T08:10:10.694Z,100081.75
2023-04-28T08:12:39.231Z,100075.25
2023-04-28T08:15:08.190Z,100073.25
2023-04-28T08:17:36.485Z,100067.53
2023-04-28T08:20:07.624Z,100055.84
2023-04-28T08:22:36.245Z,100055.63
2023-04-28T08:25:04.560Z,100059.91
2023-04-28T08:27:34.256Z,100055.09
2023-04-28T08:30:02.416Z,100054.25
2023-04-28T08:32:30.481Z,100067.25
2023-04-28T08:34:58.767Z,100064.56
2023-04-28T08:37:28.645Z,100063.72
2023-04-28T08:40:02.242Z,100069.28
2023-04-28T08:42:31.869Z,100065.78
2023-04-28T08:45:00.595Z,100071.75
2023-04-28T08:47:35.307Z,100069.66
2023-04-28T08:50:08.138Z,100069.34
2023-04-28T08:52:37.947Z,100071.41
2023-04-28T08:55:09.763Z,100069.56
2023-04-28T08:57:41.504Z,100068.38
2023-04-28T09:00:10.590Z,100070.47
2023-04-28T09:02:41.592Z,100075.03
2023-04-28T09:05:10.340Z,100069.44
2023-04-28T09:07:40.180Z,100069.25
2023-04-28T09:10:21.979Z,100065.13
2023-04-28T09:12:53.141Z,100073.38
2023-04-28T09:15:29.811Z,100080.03
2023-04-28T09:17:59.203Z,100071.50
2023-04-28T09:20:28.750Z,100086.47
2023-04-28T09:23:13.155Z,100085.09
2023-04-28T09:25:41.224Z,100087.97
2023-04-28T09:28:22.050Z,100082.28
2023-04-28T09:30:50.242Z,100077.34
2023-04-28T09:33:18.321Z,100058.28
2023-04-28T09:35:47.780Z,100044.31
2023-04-28T09:38:17.472Z,100036.34
2023-04-28T09:40:58.288Z,100030.41
2023-04-28T09:43:30.995Z,100028.75
2023-04-28T09:46:00.760Z,100035.91
2023-04-28T09:48:33.337Z,100033.94
2023-04-28T09:51:02.810Z,100040.63
2023-04-28T09:53:33.056Z,100039.16
2023-04-28T09:56:03.487Z,100052.47
2023-04-28T09:58:32.959Z,100048.19
2023-04-28T10:01:02.491Z,100053.75
2023-04-28T10:03:32.307Z,100051.75
2023-04-28T10:06:01.260Z,100052.00
2023-04-28T10:08:29.585Z,100050.34
2023-04-28T10:10:59.551Z,100048.06
2023-04-28T10:13:27.756Z,100036.03
2023-04-28T10:15:58.403Z,100035.66
2023-04-28T10:18:27.406Z,100039.19
2023-04-28T10:20:59.316Z,100029.94
2023-04-28T10:23:52.401Z,100024.13
2023-04-28T10:26:23.871Z,100025.00
2023-04-28T10:28:53.518Z,100020.63
2023-04-28T10:31:23.255Z,100016.53
2023-04-28T10:33:51.550Z,100005.53
2023-04-28T10:36:49.270Z,100003.53
2023-04-28T10:39:17.430Z,99998.38
2023-04-28T10:41:47.854Z,100011.41
2023-04-28T10:44:42.806Z,100007.22
2023-04-28T10:47:11.808Z,100012.88
2023-04-28T10:50:08.808Z,100006.22
2023-04-28T10:52:52.547Z,100010.25
2023-04-28T10:55:33.148Z,100005.59
2023-04-28T10:58:34.103Z,100008.75
2023-04-28T11:01:27.749Z,99996.91
2023-04-28T11:04:03.291Z,99995.56
2023-04-28T11:06:34.542Z,99998.34
2023-04-28T11:09:04.147Z,100003.69
2023-04-28T11:11:34.988Z,99994.09
2023-04-28T11:14:36.031Z,99989.41
2023-04-28T11:17:06.159Z,99979.06
2023-04-28T11:19:35.901Z,99972.69
2023-04-28T11:22:09.922Z,99975.91
2023-04-28T11:24:38.014Z,99979.16
2023-04-28T11:27:06.088Z,99975.34
2023-04-28T11:29:36.776Z,99973.28
2023-04-28T11:32:05.464Z,99972.81
2023-04-28T11:34:33.776Z,99970.44
2023-04-28T11:37:02.361Z,99970.50
2023-04-28T11:39:32.452Z,99964.00
2023-04-28T11:42:02.359Z,99952.31
2023-04-28T11:44:33.073Z,99954.88
2023-04-28T11:47:05.076Z,99954.03
2023-04-28T11:49:43.346Z,99957.94
2023-04-28T11:52:12.602Z,99956.28
2023-04-28T11:54:43.343Z,99951.06
2023-04-28T11:57:18.914Z,99947.88
2023-04-28T11:59:47.826Z,99958.00
2023-04-28T12:02:25.505Z,99959.28
2023-04-28T12:04:53.885Z,99954.50
2023-04-28T12:07:21.964Z,99949.28
2023-04-28T12:10:10.891Z,99954.44
2023-04-28T12:12:50.000Z,99948.38
2023-04-28T12:15:21.829Z,99953.41
2023-04-28T12:17:52.218Z,99945.03
2023-04-28T12:20:37.859Z,99939.22
2023-04-28T12:23:07.381Z,99932.03
2023-04-28T12:25:44.749Z,99928.81
2023-04-28T12:28:12.798Z,99927.88
2023-04-28T12:30:42.434Z,99919.53
2023-04-28T12:33:25.326Z,99919.13
2023-04-28T12:35:54.995Z,99912.59
2023-04-28T12:38:23.452Z,99922.84
2023-04-28T12:40:51.555Z,99916.31
2023-04-28T12:43:19.579Z,99912.78
2023-04-28T12:45:47.965Z,99924.81
2023-04-28T12:48:16.137Z,99921.38
2023-04-28T12:50:46.599Z,99924.53
2023-04-28T12:53:14.713Z,99923.94
2023-04-28T12:55:42.716Z,99923.69
2023-04-28T12:58:10.800Z,99921.69
2023-04-28T13:00:39.326Z,99924.09
2023-04-28T13:03:08.234Z,99917.63
2023-04-28T13:05:37.166Z,99921.22
2023-04-28T13:08:06.878Z,99913.53
2023-04-28T13:10:35.134Z,99913.91
2023-04-28T13:13:03.278Z,99910.19
2023-04-28T13:15:32.385Z,99918.88
2023-04-28T13:18:00.740Z,99917.81
2023-04-28T13:20:28.832Z,99916.72
2023-04-28T13:22:56.943Z,99905.66
2023-04-28T13:25:26.371Z,99894.91
2023-04-28T13:27:54.401Z,99911.59
2023-04-28T13:30:22.469Z,99914.56
2023-04-28T13:32:51.985Z,99910.53
2023-04-28T13:35:20.474Z,99902.19
2023-04-28T13:37:48.660Z,99892.13
2023-04-28T13:40:16.741Z,99899.13
2023-04-28T13:42:47.092Z,99894.25
2023-04-28T13:45:17.411Z,99883.66
2023-04-28T13:47:45.991Z,99880.03
2023-04-28T13:50:14.013Z,99892.41
2023-04-28T13:52:42.522Z,99885.41
2023-04-28T13:55:11.112Z,99889.81
2023-04-28T13:57:39.951Z,99891.72
2023-04-28T14:00:11.199Z,99887.16
2023-04-28T14:02:39.871Z,99885.75
2023-04-28T14:05:08.802Z,99884.91
2023-04-28T14:07:36.922Z,99883.38
2023-04-28T14:10:06.217Z,99886.50
2023-04-28T14:12:35.090Z,99887.66
2023-04-28T14:15:03.114Z,99870.06
2023-04-28T14:17:34.767Z,99879.84
2023-04-28T14:20:04.115Z,99885.78
2023-04-28T14:22:32.300Z,99886.84
2023-04-28T14:25:00.527Z,99888.34
2023-04-28T14:27:29.384Z,99886.84
2023-04-28T14:29:57.870Z,99880.88
2023-04-28T14:32:25.963Z,99886.84
2023-04-28T14:34:55.398Z,99877.53
2023-04-28T14:37:23.579Z,99865.47
2023-04-28T14:39:51.618Z,99877.22
2023-04-28T14:42:20.177Z,99875.66
2023-04-28T14:44:48.610Z,99878.88
2023-04-28T14:47:17.323Z,99870.25
2023-04-28T14:49:45.560Z,99873.41
2023-04-28T14:52:15.688Z,99859.78
2023-04-28T14:54:43.750Z,99861.78
2023-04-28T14:57:11.816Z,99867.56
2023-04-28T14:59:39.885Z,99864.88
2023-04-28T15:02:08.645Z,99863.41
2023-04-28T15:04:37.578Z,99856.94
2023-04-28T15:07:06.157Z,99858.28
2023-04-28T15:09:35.740Z,99852.44
2023-04-28T15:12:04.346Z,99857.84
2023-04-28T15:14:32.766Z,99849.09
2023-04-28T15:17:00.888Z,99848.31
2023-04-28T15:19:29.116Z,99851.66
2023-04-28T15:21:57.386Z,99851.25
2023-04-28T15:24:25.653Z,99853.16
2023-04-28T15:26:55.298Z,99847.56
2023-04-28T15:29:24.048Z,99846.13
2023-04-28T15:31:52.122Z,99836.09
2023-04-28T15:34:20.118Z,99835.19
2023-04-28T15:36:49.480Z,99832.16
2023-04-28T15:39:17.621Z,99837.72
2023-04-28T15:41:45.647Z,99837.53
2023-04-28T15:44:15.436Z,99837.59
2023-04-28T15:46:44.667Z,99835.28
2023-04-28T15:49:13.314Z,99837.25
2023-04-28T15:51:41.610Z,99838.56
2023-04-28T15:54:09.608Z,99849.50
2023-04-28T15:56:37.723Z,99838.75
2023-04-28T15:59:05.798Z,99835.84
2023-04-28T16:01:35.248Z,99842.13
2023-04-28T16:04:04.326Z,99836.31
2023-04-28T16:06:32.804Z,99838.28
2023-04-28T16:09:00.922Z,99837.78
2023-04-28T16:11:29.764Z,99836.25
2023-04-28T16:13:57.839Z,99842.84
2023-04-28T16:16:25.867Z,99846.22
2023-04-28T16:18:56.052Z,99840.50
2023-04-28T16:21:25.318Z,99839.69
2023-04-28T16:23:53.681Z,99836.44
2023-04-28T16:26:22.099Z,99835.25
2023-04-28T16:28:50.090Z,99835.25
2023-04-28T16:31:18.116Z,99834.53
2023-04-28T16:33:46.262Z,99835.31
2023-04-28T16:36:15.634Z,99831.66
2023-04-28T16:38:45.716Z,99832.78
2023-04-28T16:41:14.516Z,99828.13
2023-04-28T16:43:42.564Z,99831.50
2023-04-28T16:46:10.810Z,99833.34
2023-04-28T16:48:38.878Z,99833.56
2023-04-28T16:51:10.529Z,99834.16
2023-04-28T16:53:40.098Z,99824.25
2023-04-28T16:56:10.690Z,99823.72
2023-04-28T16:58:39.325Z,99826.50
2023-04-28T17:01:07.404Z,99827.03
2023-04-28T17:03:41.161Z,99822.91
2023-04-28T17:06:09.615Z,99820.44
2023-04-28T17:08:39.338Z,99826.28
2023-04-28T17:11:07.552Z,99821.19
2023-04-28T17:13:36.128Z,99813.00
2023-04-28T17:16:04.327Z,99812.63
2023-04-28T17:18:32.914Z,99801.28
2023-04-28T17:21:01.054Z,99818.28
2023-04-28T17:23:29.070Z,99821.22
2023-04-28T17:25:58.439Z,99822.50
2023-04-28T17:28:27.987Z,99816.81
2023-04-28T17:30:56.161Z,99829.41
2023-04-28T17:33:24.206Z,99830.47
2023-04-28T17:35:52.234Z,99844.44
2023-04-28T17:38:20.361Z,99857.78
2023-04-28T17:40:48.717Z,99852.72
2023-04-28T17:43:20.319Z,99867.13
2023-04-28T17:45:48.558Z,99873.94
2023-04-28T17:48:16.638Z,99872.13
2023-04-28T17:50:44.724Z,99868.44
2023-04-28T17:53:12.731Z,99871.69
2023-04-28T17:55:41.193Z,99869.69
2023-04-28T17:58:09.410Z,99869.50
2023-04-28T18:00:38.905Z,99871.81
2023-04-28T18:03:06.937Z,99869.22
2023-04-28T18:05:36.132Z,99871.34
2023-04-28T18:08:04.690Z,99879.78
2023-04-28T18:10:32.992Z,99885.72
2023-04-28T18:13:01.876Z,99883.06
2023-04-28T18:15:30.595Z,99883.06
2023-04-28T18:18:00.357Z,99886.34
2023-04-28T18:20:28.636Z,99892.91
2023-04-28T18:22:58.214Z,99889.22
2023-04-28T18:25:26.319Z,99891.47
2023-04-28T18:27:55.056Z,99888.81
2023-04-28T18:30:23.339Z,99899.66
2023-04-28T18:32:52.262Z,99894.34
2023-04-28T18:35:21.958Z,99897.00
2023-04-28T18:37:50.093Z,99895.78
2023-04-28T18:40:18.171Z,99901.69
2023-04-28T18:42:46.305Z,99897.81
2023-04-28T18:45:15.006Z,99910.28
2023-04-28T18:47:43.073Z,99907.00
2023-04-28T18:50:11.610Z,99905.56
2023-04-28T18:52:41.087Z,99911.09
2023-04-28T18:55:09.439Z,99906.16
2023-04-28T18:57:37.751Z,99901.88
2023-04-28T19:00:06.336Z,99912.50
2023-04-28T19:02:34.400Z,99910.28
2023-04-28T19:05:02.605Z,99916.59
2023-04-28T19:07:31.632Z,99920.47
2023-04-28T19:10:01.123Z,99923.13
2023-04-28T19:12:29.176Z,99929.91
2023-04-28T19:14:57.222Z,99922.94
2023-04-28T19:17:25.713Z,99932.56
2023-04-28T19:19:56.906Z,99932.56
2023-04-28T19:22:36.058Z,99944.84
2023-04-28T19:25:07.090Z,99941.19
2023-04-28T19:27:37.135Z,99940.13
2023-04-28T19:30:07.429Z,99944.25
2023-04-28T19:32:35.954Z,99951.41
2023-04-28T19:35:05.126Z,99952.84
2023-04-28T19:37:34.097Z,99946.69
2023-04-28T19:40:03.400Z,99952.84
2023-04-28T19:42:33.213Z,99955.31
2023-04-28T19:45:01.301Z,99950.00
2023-04-28T19:47:33.410Z,99950.59
2023-04-28T19:50:02.052Z,99952.03
2023-04-28T19:52:30.149Z,99958.16
2023-04-28T19:54:58.336Z,99946.69
2023-04-28T19:57:26.397Z,99954.69
2023-04-28T19:59:56.377Z,99957.53
2023-04-28T20:02:24.608Z,99952.41
2023-04-28T20:04:52.823Z,99955.06
2023-04-28T20:07:20.877Z,99956.91
2023-04-28T20:09:49.349Z,99946.50
2023-04-28T20:12:17.895Z,99947.50
2023-04-28T20:14:47.449Z,99945.03
2023-04-28T20:17:18.488Z,99955.50
2023-04-28T20:19:46.867Z,99955.50
2023-04-28T20:22:15.027Z,99960.59
2023-04-28T20:24:43.424Z,99956.69
2023-04-28T20:27:12.600Z,99957.72
2023-04-28T20:29:42.264Z,99971.22
2023-04-28T20:32:10.825Z,99958.91
2023-04-28T20:34:42.387Z,99964.06
2023-04-28T20:37:11.747Z,99965.06
2023-04-28T20:39:39.900Z,99960.78
2023-04-28T20:42:08.590Z,99964.25
2023-04-28T20:44:38.938Z,99964.66
2023-04-28T20:47:07.909Z,99959.34
2023-04-28T20:49:36.552Z,99966.69
2023-04-28T20:52:06.558Z,99968.53
2023-04-28T20:54:36.736Z,99965.69
2023-04-28T20:57:05.772Z,99958.09
2023-04-28T20:59:34.336Z,99965.03
2023-04-28T21:02:04.068Z,99960.97
2023-04-28T21:04:32.930Z,99973.44
2023-04-28T21:07:01.042Z,99966.06
2023-04-28T21:09:30.956Z,99961.78
2023-04-28T21:11:59.479Z,99968.31
2023-04-28T21:14:28.112Z,99965.47
2023-04-28T21:16:56.415Z,99959.50
2023-04-28T21:19:26.235Z,99960.53
2023-04-28T21:21:54.669Z,99967.28
2023-04-28T21:24:22.987Z,99964.00
2023-04-28T21:26:52.825Z,99965.00
2023-04-28T21:29:21.204Z,99965.00
2023-04-28T21:31:49.376Z,99972.16
2023-04-28T21:34:18.169Z,99970.31
2023-04-28T21:36:46.534Z,99969.31
2023-04-28T21:39:14.688Z,99970.31
2023-04-28T21:41:43.051Z,99969.31
2023-04-28T21:44:13.124Z,99960.69
2023-04-28T21:46:41.464Z,99978.50
2023-04-28T21:49:09.607Z,99982.16
2023-04-28T21:51:38.095Z,99976.25
2023-04-28T21:54:06.860Z,99974.59
2023-04-28T21:56:35.163Z,99977.44
2023-04-28T21:59:03.574Z,99975.63
2023-04-28T22:01:33.365Z,99978.06
2023-04-28T22:04:02.571Z,99978.69
2023-04-28T22:06:32.287Z,99970.50
2023-04-28T22:09:01.653Z,99968.69
2023-04-28T22:11:30.346Z,99977.66
2023-04-28T22:13:58.473Z,99965.38
2023-04-28T22:16:26.876Z,99975.41
2023-04-28T22:18:57.574Z,99980.94
2023-04-28T22:21:26.149Z,99970.69
2023-04-28T22:23:54.290Z,99981.13
2023-04-28T22:26:30.277Z,99987.84
2023-04-28T22:28:58.460Z,99988.25
2023-04-28T22:31:27.074Z,99990.72
2023-04-28T22:33:57.231Z,99989.06
2023-04-28T22:36:27.570Z,99997.88
2023-04-28T22:38:56.116Z,99982.94
2023-04-28T22:41:25.042Z,99997.03
2023-04-28T22:43:53.499Z,99992.72
2023-04-28T22:46:22.350Z,99997.22
2023-04-28T22:48:51.134Z,100000.72
2023-04-28T22:51:21.214Z,99998.44
2023-04-28T22:53:49.891Z,99995.34
2023-04-28T22:56:18.417Z,100008.41
2023-04-28T22:58:46.573Z,100015.94
2023-04-28T23:01:15.137Z,100010.78
2023-04-28T23:03:43.595Z,100011.84
2023-04-28T23:06:12.052Z,100004.63
2023-04-28T23:08:41.601Z,100005.41
2023-04-28T23:11:09.780Z,100006.41
2023-04-28T23:13:38.394Z,100007.84
2023-04-28T23:16:07.198Z,99998.81
2023-04-28T23:18:35.924Z,100002.66
2023-04-28T23:21:04.495Z,100013.47
2023-04-28T23:23:33.411Z,100012.22
2023-04-28T23:26:03.571Z,100009.94
2023-04-28T23:28:32.114Z,100016.47
2023-04-28T23:31:00.187Z,100014.22
2023-04-28T23:33:30.056Z,100011.56
2023-04-28T23:35:59.438Z,100027.84
2023-04-28T23:38:27.709Z,100024.59
2023-04-28T23:40:56.009Z,100025.78
2023-04-28T23:43:25.697Z,100025.97
2023-04-28T23:45:53.980Z,100035.13
2023-04-28T23:48:22.579Z,100036.78
2023-04-28T23:50:51.484Z,100031.47
2023-04-28T23:53:21.695Z,100033.13
2023-04-28T23:55:50.425Z,100038.06
2023-04-28T23:58:19.164Z,100023.13
